Time;durP1;ratioP1;P1;durP2;ratioP2;P2;SDS_P1;SDS_P2;PMS_P1;PMS_P2;Temp;Humidity;BMP_temperature;BMP_pressure;BME280_temperature;BME280_humidity;BME280_pressure;Samples;Min_cycle;Max_cycle;Signal;HPM_P1;HPM_P2
2022/04/25 00:01:22;;;;;;;2.60;2.40;;;;;;;17.49;51.95;99136.02;1793508;80;21064;-66
2022/04/25 00:03:48;;;;;;;2.40;2.20;;;;;;;17.49;51.96;99127.16;1793519;79;21020;-64
2022/04/25 00:06:16;;;;;;;2.60;2.40;;;;;;;17.48;51.94;99125.00;1795170;78;21790;-65
2022/04/25 00:08:44;;;;;;;2.40;2.20;;;;;;;17.48;51.93;99121.48;1825596;78;20978;-64
2022/04/25 00:11:12;;;;;;;2.42;2.22;;;;;;;17.45;51.93;99109.33;1826084;78;21513;-65
2022/04/25 00:13:39;;;;;;;2.50;2.30;;;;;;;17.46;51.94;99113.67;1825976;78;21038;-65
2022/04/25 00:16:06;;;;;;;2.83;2.62;;;;;;;17.44;51.95;99111.73;1826227;78;21489;-65
2022/04/25 00:18:33;;;;;;;2.40;2.20;;;;;;;17.43;51.95;99116.80;1826123;78;21128;-65
2022/04/25 00:21:01;;;;;;;2.55;2.35;;;;;;;17.43;51.99;99111.43;1825895;78;20974;-65
2022/04/25 00:23:29;;;;;;;2.33;2.15;;;;;;;17.43;51.96;99113.30;1816731;78;21029;-65
2022/04/25 00:25:57;;;;;;;2.45;2.25;;;;;;;17.42;51.97;99118.36;1793455;79;20982;-65
2022/04/25 00:28:24;;;;;;;2.77;2.58;;;;;;;17.41;51.99;99114.87;1793532;80;21053;-65
2022/04/25 00:30:50;;;;;;;2.45;2.25;;;;;;;17.40;51.97;99113.75;1793543;80;21134;-64
2022/04/25 00:33:18;;;;;;;2.37;2.17;;;;;;;17.40;51.98;99119.12;1793492;79;21041;-65
2022/04/25 00:35:46;;;;;;;2.55;2.30;;;;;;;17.39;52.00;99119.65;1793426;79;20998;-66
2022/04/25 00:38:14;;;;;;;2.95;2.75;;;;;;;17.39;52.00;99112.94;1793528;79;21520;-64
2022/04/25 00:40:42;;;;;;;2.65;2.45;;;;;;;17.38;51.98;99119.88;1794632;78;21010;-64
2022/04/25 00:43:09;;;;;;;2.70;2.50;;;;;;;17.37;51.98;99117.72;1793835;79;21478;-65
2022/04/25 00:45:37;;;;;;;2.52;2.33;;;;;;;17.38;51.98;99112.62;1793751;80;21360;-65
2022/04/25 00:48:06;;;;;;;2.60;2.40;;;;;;;17.36;51.98;99106.67;1793779;79;21542;-64
2022/04/25 00:50:38;;;;;;;2.65;2.45;;;;;;;17.35;51.99;99110.42;1793672;79;21073;-65
2022/04/25 00:53:04;;;;;;;2.45;2.25;;;;;;;17.35;51.98;99107.73;1793570;79;21005;-64
2022/04/25 00:55:31;;;;;;;2.60;2.40;;;;;;;17.35;51.98;99105.58;1785965;80;21212;-65
2022/04/25 00:57:59;;;;;;;2.87;2.67;;;;;;;17.35;51.98;99099.67;1783468;79;21471;-65
2022/04/25 01:00:27;;;;;;;2.60;2.40;;;;;;;17.33;52.00;99097.75;1782526;79;21061;-65
2022/04/25 01:02:54;;;;;;;2.60;2.30;;;;;;;17.33;52.00;99092.91;1782634;79;21514;-65
2022/04/25 01:05:20;;;;;;;2.72;2.52;;;;;;;17.31;52.00;99086.42;1782491;80;21065;-65
2022/04/25 01:07:49;;;;;;;2.55;2.35;;;;;;;17.30;52.01;99076.72;1803225;79;21126;-64
2022/04/25 01:10:15;;;;;;;2.50;2.30;;;;;;;17.29;52.01;99075.91;1802817;79;21072;-65
2022/04/25 01:12:43;;;;;;;2.75;2.55;;;;;;;17.29;52.03;99077.78;1802946;79;21075;-65
2022/04/25 01:15:12;;;;;;;2.50;2.30;;;;;;;17.28;52.01;99068.88;1791656;79;21455;-65
2022/04/25 01:17:40;;;;;;;2.65;2.45;;;;;;;17.28;52.02;99077.47;1782429;80;20982;-65
2022/04/25 01:20:09;;;;;;;2.60;2.40;;;;;;;17.27;52.00;99076.66;1782600;79;21081;-66
2022/04/25 01:22:56;;;;;;;2.67;2.47;;;;;;;17.26;52.01;99070.17;1782468;79;20994;-65
2022/04/25 01:28:09;;;;;;;3.30;3.05;;;;;;;17.25;52.01;99073.38;1782579;80;21003;-64
2022/04/25 01:30:36;;;;;;;2.92;2.72;;;;;;;17.24;52.04;99072.27;1782655;79;21517;-65
2022/04/25 01:33:03;;;;;;;2.47;2.27;;;;;;;17.22;52.04;99068.98;1783599;79;21185;-65
2022/04/25 01:35:30;;;;;;;3.00;2.80;;;;;;;17.22;52.04;99063.63;1782475;79;21002;-66
2022/04/25 01:37:57;;;;;;;2.77;2.58;;;;;;;17.21;52.04;99060.62;1782490;79;21019;-65
2022/04/25 01:40:25;;;;;;;2.50;2.30;;;;;;;17.21;52.04;99057.44;1782521;79;20975;-65
2022/04/25 01:42:52;;;;;;;2.77;2.58;;;;;;;17.20;52.07;99056.32;1782440;80;21080;-65
2022/04/25 01:45:20;;;;;;;2.75;2.55;;;;;;;17.20;52.04;99054.98;1782590;80;21125;-66
2022/04/25 01:47:48;;;;;;;2.60;2.40;;;;;;;17.19;52.03;99047.46;1782924;79;20971;-65
2022/04/25 01:50:14;;;;;;;2.60;2.40;;;;;;;17.19;52.05;99046.62;1803479;79;21022;-65
2022/04/25 01:52:41;;;;;;;3.17;2.87;;;;;;;17.18;52.05;99051.70;1814543;79;21073;-65
2022/04/25 01:55:09;;;;;;;2.72;2.52;;;;;;;17.17;52.04;99052.23;1814869;78;21033;-66
2022/04/25 01:57:37;;;;;;;2.72;2.52;;;;;;;17.16;52.05;99061.32;1814537;79;21790;-64
2022/04/25 02:00:06;;;;;;;2.85;2.65;;;;;;;17.16;52.05;99059.98;1814444;79;21033;-64
2022/04/25 02:02:35;;;;;;;2.72;2.52;;;;;;;17.16;52.06;99059.17;1814907;79;21018;-64
2022/04/25 02:05:03;;;;;;;2.90;2.70;;;;;;;17.15;52.05;99052.96;1811933;79;21030;-65
2022/04/25 02:07:31;;;;;;;2.40;2.20;;;;;;;17.15;52.06;99049.47;1805809;79;21021;-64
2022/04/25 02:09:58;;;;;;;2.70;2.50;;;;;;;17.14;52.06;99046.50;1814440;79;21294;-64
2022/04/25 02:12:24;;;;;;;2.87;2.67;;;;;;;17.13;52.07;99051.03;1814741;79;21487;-65
2022/04/25 02:14:52;;;;;;;2.65;2.45;;;;;;;17.12;52.06;99055.31;1814547;78;21045;-65
2022/04/25 02:17:19;;;;;;;2.95;2.67;;;;;;;17.12;52.07;99058.80;1814649;79;21030;-64
2022/04/25 02:19:46;;;;;;;2.70;2.50;;;;;;;17.11;52.08;99054.47;1814593;78;21482;-65
2022/04/25 02:22:13;;;;;;;2.77;2.58;;;;;;;17.10;52.09;99061.70;1813706;79;21138;-65
2022/04/25 02:24:41;;;;;;;3.40;2.60;;;;;;;17.10;52.08;99062.23;1814497;78;21518;-65
2022/04/25 02:27:10;;;;;;;2.92;2.72;;;;;;;17.09;52.09;99055.22;1814629;78;21034;-65
2022/04/25 02:29:39;;;;;;;2.77;2.58;;;;;;;17.07;52.09;99050.11;1814511;79;21018;-65
2022/04/25 02:32:12;;;;;;;2.98;2.75;;;;;;;17.07;52.08;99045.23;1814824;78;21543;-66
2022/04/25 02:34:42;;;;;;;2.85;2.60;;;;;;;17.06;52.10;99046.30;1814517;78;21546;-64
2022/04/25 02:37:08;;;;;;;2.83;2.62;;;;;;;17.06;52.12;99049.80;1814446;78;21057;-65
2022/04/25 02:39:36;;;;;;;3.00;2.70;;;;;;;17.05;52.12;99045.98;1813423;78;21053;-65
2022/04/25 02:42:04;;;;;;;2.83;2.62;;;;;;;17.04;52.13;99045.18;1814423;79;21014;-64
2022/04/25 02:44:31;;;;;;;2.58;2.37;;;;;;;17.03;52.14;99042.19;1814597;79;21014;-65
2022/04/25 02:46:57;;;;;;;2.60;2.40;;;;;;;17.03;52.13;99036.81;1814440;79;21168;-65
2022/04/25 02:49:26;;;;;;;2.62;2.42;;;;;;;17.02;52.15;99036.54;1814543;78;21009;-65
2022/04/25 02:51:54;;;;;;;3.50;3.00;;;;;;;17.02;52.15;99035.20;1814540;78;21541;-65
2022/04/25 02:54:21;;;;;;;2.80;2.60;;;;;;;17.01;52.14;99034.89;1814522;79;21026;-65
2022/04/25 02:56:49;;;;;;;2.90;2.70;;;;;;;17.00;52.15;99026.56;1824119;78;21567;-64
2022/04/25 02:59:15;;;;;;;2.60;2.40;;;;;;;17.00;52.16;99033.80;1826203;78;21127;-65
2022/04/25 03:01:43;;;;;;;2.83;2.60;;;;;;;16.99;52.15;99041.01;1825973;78;20943;-65
2022/04/25 03:04:11;;;;;;;3.00;2.80;;;;;;;16.99;52.17;99041.01;1826024;78;21088;-65
2022/04/25 03:06:39;;;;;;;2.62;2.42;;;;;;;17.00;52.17;99039.16;1826202;78;21494;-65
2022/04/25 03:09:06;;;;;;;2.52;2.33;;;;;;;16.98;52.17;99030.00;1825981;78;21026;-65
2022/04/25 03:11:35;;;;;;;2.83;2.62;;;;;;;16.98;52.18;99030.00;1825994;78;21026;-65
2022/04/25 03:14:02;;;;;;;3.20;2.90;;;;;;;16.97;52.18;99025.66;1824975;78;21033;-65
2022/04/25 03:16:29;;;;;;;2.95;2.65;;;;;;;16.97;52.19;99017.61;1826090;78;21517;-65
2022/04/25 03:18:58;;;;;;;2.83;2.62;;;;;;;16.97;52.18;99017.61;1825897;78;21009;-65
2022/04/25 03:21:25;;;;;;;2.80;2.60;;;;;;;16.97;52.20;99008.22;1826019;78;21014;-64
2022/04/25 03:23:54;;;;;;;2.90;2.70;;;;;;;16.96;52.20;98994.53;1826133;78;20963;-65
2022/04/25 03:26:22;;;;;;;2.92;2.70;;;;;;;16.96;52.20;98993.69;1826059;78;21620;-65
2022/04/25 03:28:49;;;;;;;3.02;2.65;;;;;;;16.96;52.21;98993.19;1826013;78;20994;-65
2022/04/25 03:31:16;;;;;;;2.87;2.67;;;;;;;16.95;52.22;99000.11;1824843;78;21009;-65
2022/04/25 03:33:44;;;;;;;3.45;3.15;;;;;;;16.95;52.22;99006.82;1825997;78;21037;-65
2022/04/25 03:36:11;;;;;;;3.12;2.83;;;;;;;16.95;52.22;99001.45;1826106;78;20994;-65
2022/04/25 03:38:38;;;;;;;2.90;2.50;;;;;;;16.94;52.25;98997.96;1826023;78;20995;-64
2022/04/25 03:41:05;;;;;;;3.12;2.92;;;;;;;16.94;52.24;98987.73;1826002;78;20982;-65
2022/04/25 03:43:32;;;;;;;3.00;2.80;;;;;;;16.94;52.25;98994.44;1826103;78;20970;-66
2022/04/25 03:46:00;;;;;;;2.70;2.50;;;;;;;16.94;52.26;98991.76;1826005;78;21022;-64
2022/04/25 03:48:26;;;;;;;3.27;2.98;;;;;;;16.93;52.26;98994.16;1824835;78;21131;-64
2022/04/25 03:50:53;;;;;;;2.70;2.50;;;;;;;16.93;52.28;98985.58;1826045;78;21557;-64
2022/04/25 03:53:19;;;;;;;3.25;3.05;;;;;;;16.94;52.27;98986.39;1826081;78;21072;-65
2022/04/25 03:58:15;;;;;;;2.62;2.42;;;;;;;16.93;52.26;99000.34;1792446;78;21060;-65
2022/04/25 04:00:43;;;;;;;2.75;2.55;;;;;;;16.94;52.28;99002.48;1826022;78;21279;-65
2022/04/25 04:03:12;;;;;;;2.92;2.72;;;;;;;16.94;52.26;99001.98;1825949;78;21021;-65
2022/04/25 04:05:43;;;;;;;3.00;2.70;;;;;;;16.94;52.28;98985.89;1824859;78;20990;-64
2022/04/25 04:08:11;;;;;;;2.60;2.40;;;;;;;16.95;52.27;98987.51;1825777;78;21067;-64
2022/04/25 04:10:40;;;;;;;3.05;2.85;;;;;;;16.94;52.29;98981.86;1826051;78;21623;-64
2022/04/25 04:13:07;;;;;;;2.95;2.75;;;;;;;16.95;52.29;98990.72;1826119;78;21084;-65
2022/04/25 04:15:34;;;;;;;2.95;2.75;;;;;;;16.96;52.31;98991.00;1825970;78;21051;-65
2022/04/25 04:18:08;;;;;;;3.10;2.90;;;;;;;16.96;52.31;98985.14;1826090;78;21500;-65
2022/04/25 04:20:33;;;;;;;2.92;2.72;;;;;;;16.96;52.31;98982.45;1826430;78;21005;-64
2022/04/25 04:23:00;;;;;;;3.10;2.83;;;;;;;16.95;52.30;98972.75;1797081;78;21407;-66
2022/04/25 04:25:27;;;;;;;2.67;2.47;;;;;;;16.96;52.30;98971.72;1793740;79;21244;-65
2022/04/25 04:27:55;;;;;;;3.00;2.80;;;;;;;16.98;52.30;98975.49;1793659;79;21082;-65
2022/04/25 04:30:21;;;;;;;3.08;2.87;;;;;;;16.97;52.32;98973.34;1793848;80;20997;-65
2022/04/25 04:32:48;;;;;;;2.77;2.58;;;;;;;16.96;52.31;98966.36;1793677;80;21541;-66
2022/04/25 04:36:17;;;;;;;2.62;2.42;;;;;;;16.97;52.31;98966.64;1793748;79;20998;-66
2022/04/25 04:37:46;;;;;;;2.98;2.77;;;;;;;16.98;52.31;98961.58;1791436;78;21099;-65
2022/04/25 04:40:28;;;;;;;2.85;2.65;;;;;;;16.98;52.31;98962.92;1825740;78;21029;-65
2022/04/25 04:42:55;;;;;;;3.12;2.83;;;;;;;16.99;52.31;98969.91;1826074;78;20997;-65
2022/04/25 04:45:22;;;;;;;2.87;2.67;;;;;;;17.00;52.32;98961.36;1826286;78;21002;-65
2022/04/25 04:47:49;;;;;;;3.45;3.15;;;;;;;17.01;52.31;98957.61;1826170;78;21057;-65
2022/04/25 04:50:17;;;;;;;2.83;2.62;;;;;;;17.02;52.32;98969.46;1826224;78;21072;-65
2022/04/25 04:52:45;;;;;;;3.15;2.85;;;;;;;17.04;52.32;98977.28;1825997;78;20991;-65
2022/04/25 04:55:12;;;;;;;2.70;2.50;;;;;;;17.04;52.29;98973.27;1825215;78;21541;-65
2022/04/25 04:57:39;;;;;;;2.50;2.30;;;;;;;17.06;52.29;98969.30;1826088;78;21041;-65
2022/04/25 05:00:09;;;;;;;2.98;2.77;;;;;;;17.07;52.29;98967.42;1826128;78;21005;-65
2022/04/25 05:02:38;;;;;;;2.92;2.72;;;;;;;17.09;52.29;98963.98;1826622;78;21053;-65
2022/04/25 05:05:06;;;;;;;2.85;2.65;;;;;;;17.09;52.27;98960.80;1825956;78;21001;-65
2022/04/25 05:07:35;;;;;;;3.00;2.70;;;;;;;17.09;52.28;98963.48;1826091;78;21137;-66
2022/04/25 05:10:05;;;;;;;2.83;2.62;;;;;;;17.12;52.28;98956.02;1826053;78;21057;-65
2022/04/25 05:12:45;;;;;;;2.77;2.58;;;;;;;17.14;52.27;98955.26;1825180;78;20974;-64
2022/04/25 05:15:13;;;;;;;2.87;2.67;;;;;;;17.15;52.27;98960.38;1826169;78;21141;-65
2022/04/25 05:17:42;;;;;;;3.67;2.95;;;;;;;17.17;52.30;98953.44;1825982;78;20975;-65
2022/04/25 05:20:11;;;;;;;2.77;2.58;;;;;;;17.17;52.34;98956.13;1826376;78;21029;-66
2022/04/25 05:22:44;;;;;;;2.70;2.50;;;;;;;17.18;52.44;98959.12;1825970;78;21022;-65
2022/04/25 05:25:15;;;;;;;3.15;2.85;;;;;;;17.18;52.56;98959.92;1826263;78;21005;-65
2022/04/25 05:27:45;;;;;;;3.15;2.90;;;;;;;17.20;52.49;98967.22;1826297;78;20971;-64
2022/04/25 05:30:15;;;;;;;3.05;2.85;;;;;;;17.20;52.52;98957.02;1824910;78;21037;-64
2022/04/25 05:32:48;;;;;;;3.17;2.98;;;;;;;17.21;52.49;98948.74;1826019;78;21510;-65
2022/04/25 05:35:17;;;;;;;2.85;2.65;;;;;;;17.22;52.62;98954.92;1826645;78;21061;-65
2022/04/25 05:37:44;;;;;;;3.12;2.83;;;;;;;17.24;52.57;98954.16;1826338;78;21006;-67
2022/04/25 05:40:12;;;;;;;2.77;2.58;;;;;;;17.24;52.64;98955.50;1826168;78;22451;-65
2022/04/25 05:42:41;;;;;;;3.15;2.95;;;;;;;17.26;52.60;98953.41;1826380;78;21017;-65
2022/04/25 05:45:09;;;;;;;3.22;2.92;;;;;;;17.27;52.55;98949.16;1825777;78;21021;-65
2022/04/25 05:47:36;;;;;;;2.65;2.45;;;;;;;17.29;52.61;98941.69;1824954;78;21048;-65
2022/04/25 05:52:52;;;;;;;2.90;2.70;;;;;;;17.34;52.69;98934.80;1826076;78;21870;-64
2022/04/25 05:55:19;;;;;;;3.12;2.60;;;;;;;17.34;52.67;98924.06;1826244;78;21490;-65
2022/04/25 05:57:45;;;;;;;2.98;2.77;;;;;;;17.36;52.63;98924.11;1815455;78;21038;-64
2022/04/25 06:00:12;;;;;;;2.70;2.50;;;;;;;17.38;52.64;98920.67;1814514;79;20971;-65
2022/04/25 06:02:43;;;;;;;2.67;2.47;;;;;;;17.40;52.63;98924.47;1814515;78;21009;-66
2022/04/25 06:05:11;;;;;;;2.67;2.47;;;;;;;17.41;52.63;98914.84;1813682;78;21022;-65
2022/04/25 06:07:43;;;;;;;3.08;2.75;;;;;;;17.44;52.59;98911.71;1814450;79;21546;-67
2022/04/25 06:10:12;;;;;;;3.00;2.80;;;;;;;17.45;52.53;98899.09;1814690;78;20963;-65
2022/04/25 06:12:50;;;;;;;2.87;2.67;;;;;;;17.48;52.58;98908.01;1814384;77;21656;-66
2022/04/25 06:15:21;;;;;;;2.90;2.70;;;;;;;17.49;52.51;98911.81;1814514;79;21010;-65
2022/04/25 06:17:47;;;;;;;2.80;2.60;;;;;;;17.51;52.53;98908.09;1814478;78;21112;-64
2022/04/25 06:20:15;;;;;;;2.98;2.77;;;;;;;17.53;52.53;98899.27;1813588;78;20974;-65
2022/04/25 06:22:52;;;;;;;3.08;2.60;;;;;;;17.57;52.53;98911.17;1814677;79;21030;-66
2022/04/25 06:25:18;;;;;;;2.62;2.42;;;;;;;17.57;52.56;98903.93;1814523;78;21081;-65
2022/04/25 06:27:45;;;;;;;2.87;2.67;;;;;;;17.60;52.58;98899.98;1814561;79;21069;-65
2022/04/25 06:30:12;;;;;;;2.67;2.42;;;;;;;17.62;52.59;98901.90;1814593;79;21196;-65
2022/04/25 06:32:40;;;;;;;2.80;2.60;;;;;;;17.64;52.60;98895.77;1814473;78;21544;-65
2022/04/25 06:35:08;;;;;;;2.80;2.60;;;;;;;17.66;52.58;98891.78;1814486;79;21103;-65
2022/04/25 06:37:35;;;;;;;2.65;2.45;;;;;;;17.68;52.61;98888.87;1813432;78;21010;-66
2022/04/25 06:40:02;;;;;;;3.02;2.83;;;;;;;17.71;52.61;98887.57;1814497;78;21033;-65
2022/04/25 06:42:29;;;;;;;3.05;2.83;;;;;;;17.73;52.59;98878.75;1814555;79;21135;-65
2022/04/25 06:44:55;;;;;;;2.55;2.35;;;;;;;17.75;52.57;98882.86;1814469;78;21037;-66
2022/04/25 06:47:22;;;;;;;3.08;2.77;;;;;;;17.77;52.51;98878.06;1814620;79;21482;-65
2022/04/25 06:49:51;;;;;;;2.95;2.75;;;;;;;17.80;52.51;98872.20;1814419;79;20991;-66
2022/04/25 06:52:20;;;;;;;2.58;2.37;;;;;;;17.82;52.56;98869.28;1814483;79;21142;-65
2022/04/25 06:54:47;;;;;;;2.90;2.70;;;;;;;17.83;52.55;98860.99;1813175;79;21148;-66
2022/04/25 06:57:14;;;;;;;2.75;2.55;;;;;;;17.85;52.50;98856.77;1820691;78;20990;-65
2022/04/25 06:59:42;;;;;;;2.70;2.50;;;;;;;17.87;52.51;98858.15;1825937;78;20994;-65
2022/04/25 07:02:10;;;;;;;2.65;2.45;;;;;;;17.89;52.49;98849.86;1826031;78;21017;-66
2022/04/25 07:04:39;;;;;;;2.65;2.45;;;;;;;17.93;52.47;98858.27;1826068;78;21505;-65
2022/04/25 07:07:05;;;;;;;2.58;2.37;;;;;;;17.95;52.45;98853.47;1826001;78;21136;-65
2022/04/25 07:09:33;;;;;;;2.80;2.58;;;;;;;17.97;52.50;98851.36;1825777;78;21020;-66
2022/04/25 07:12:00;;;;;;;3.25;2.62;;;;;;;18.00;52.54;98844.98;1810295;78;21068;-65
2022/04/25 07:14:29;;;;;;;2.52;2.33;;;;;;;18.01;52.52;98843.91;1793537;79;21528;-65
2022/04/25 07:16:59;;;;;;;2.45;2.25;;;;;;;18.03;52.58;98840.99;1793563;79;21108;-65
2022/04/25 07:19:25;;;;;;;3.05;2.75;;;;;;;18.05;52.63;98840.23;1793689;80;21668;-65
2022/04/25 07:30:09;;;;;;;2.95;2.65;;;;;;;18.12;52.67;98823.44;1794751;78;21126;-66
2022/04/25 07:32:39;;;;;;;3.20;2.87;;;;;;;18.15;52.67;98826.17;1793488;80;21142;-65
2022/04/25 07:35:08;;;;;;;2.47;2.27;;;;;;;18.16;52.67;98831.84;1793272;79;21010;-66
2022/04/25 07:37:36;;;;;;;2.98;2.77;;;;;;;18.17;52.71;98824.86;1793802;79;21982;-64
2022/04/25 07:40:08;;;;;;;2.55;2.35;;;;;;;18.20;52.75;98829.77;1793443;80;21002;-65
2022/04/25 07:42:38;;;;;;;2.83;2.62;;;;;;;18.22;52.81;98825.50;1793859;79;20986;-65
2022/04/25 07:45:06;;;;;;;2.60;2.40;;;;;;;18.24;52.80;98823.39;1794559;78;21271;-65
2022/04/25 07:47:35;;;;;;;2.67;2.47;;;;;;;18.25;52.82;98812.41;1793540;80;21025;-65
2022/04/25 07:50:03;;;;;;;3.02;2.75;;;;;;;18.27;52.83;98823.73;1793122;79;21053;-65
2022/04/25 07:52:30;;;;;;;2.92;2.62;;;;;;;18.30;52.84;98820.27;1793490;80;20982;-66
2022/04/25 07:54:57;;;;;;;2.80;2.60;;;;;;;18.32;52.92;98818.16;1793424;79;21048;-66
2022/04/25 07:57:24;;;;;;;3.20;3.00;;;;;;;18.35;52.94;98827.90;1788143;80;21286;-65
2022/04/25 07:59:52;;;;;;;2.70;2.50;;;;;;;18.36;52.96;98829.52;1782352;79;20975;-65
2022/04/25 08:02:20;;;;;;;2.75;2.50;;;;;;;18.39;52.97;98839.00;1783522;79;21544;-66
2022/04/25 08:04:47;;;;;;;2.77;2.58;;;;;;;18.41;52.95;98832.84;1782390;80;21030;-65
2022/04/25 08:07:13;;;;;;;3.10;2.47;;;;;;;18.42;53.00;98829.89;1801795;79;21510;-67
2022/04/25 08:20:18;;;;;;;3.05;2.85;;;;;;;18.52;53.00;98835.98;1806647;78;21489;-65
2022/04/25 08:22:45;;;;;;;3.50;3.20;;;;;;;18.54;53.00;98843.81;1794099;80;21576;-65
2022/04/25 08:25:15;;;;;;;2.85;2.65;;;;;;;18.55;53.00;98842.77;1793996;79;20989;-65
2022/04/25 08:27:44;;;;;;;3.05;2.75;;;;;;;18.56;53.08;98836.31;1793950;79;20950;-64
2022/04/25 08:30:14;;;;;;;2.55;2.35;;;;;;;18.58;53.04;98850.33;1793976;80;21799;-65
2022/04/25 08:32:40;;;;;;;2.75;2.55;;;;;;;18.59;53.14;98833.96;1794016;80;21567;-65
2022/04/25 08:35:09;;;;;;;2.75;2.55;;;;;;;18.62;53.18;98840.21;1794006;80;20981;-65
2022/04/25 08:37:35;;;;;;;2.37;2.17;;;;;;;18.63;53.25;98841.83;1794970;78;21525;-65
2022/04/25 08:40:04;;;;;;;4.30;2.95;;;;;;;18.66;53.22;98834.63;1793949;80;21212;-65
2022/04/25 08:42:31;;;;;;;2.60;2.40;;;;;;;18.70;53.21;98840.85;1794002;79;21040;-64
2022/04/25 08:45:00;;;;;;;2.70;2.50;;;;;;;18.71;53.16;98841.95;1793910;80;21048;-66
2022/04/25 08:47:31;;;;;;;2.70;2.50;;;;;;;18.73;53.17;98849.80;1793982;79;21008;-66
2022/04/25 08:49:58;;;;;;;2.95;2.72;;;;;;;18.76;53.17;98849.32;1793951;80;21092;-66
2022/04/25 08:52:26;;;;;;;2.58;2.37;;;;;;;18.79;53.26;98841.55;1793936;80;21041;-66
2022/04/25 08:54:56;;;;;;;2.87;2.67;;;;;;;18.81;53.20;98825.20;1794996;78;21145;-65
2022/04/25 08:57:28;;;;;;;2.83;2.50;;;;;;;18.84;53.18;98844.37;1793997;79;21022;-65
2022/04/25 08:59:55;;;;;;;2.77;2.52;;;;;;;18.87;53.17;98839.02;1793915;79;21068;-66
2022/04/25 09:02:23;;;;;;;2.37;2.17;;;;;;;18.89;53.21;98824.81;1774492;80;21033;-66
2022/04/25 09:04:51;;;;;;;3.00;2.70;;;;;;;18.92;53.22;98827.54;1774522;80;21528;-65
2022/04/25 09:07:18;;;;;;;2.50;2.30;;;;;;;18.95;53.21;98836.45;1814631;78;21137;-65
2022/04/25 09:09:45;;;;;;;2.80;2.58;;;;;;;18.96;53.25;98836.21;1826237;78;20997;-66
2022/04/25 09:12:14;;;;;;;2.87;2.67;;;;;;;18.98;53.28;98841.36;1832073;78;20985;-65
2022/04/25 09:14:43;;;;;;;2.65;2.45;;;;;;;18.99;53.19;98833.04;1816630;78;21500;-66
2022/04/25 09:17:10;;;;;;;2.95;2.75;;;;;;;19.01;53.21;98843.57;1832613;77;20998;-66
2022/04/25 09:19:37;;;;;;;2.85;2.65;;;;;;;19.03;53.21;98856.25;1832525;78;22053;-65
2022/04/25 09:22:06;;;;;;;3.15;2.85;;;;;;;19.04;53.23;98856.02;1832303;77;21493;-67
2022/04/25 09:24:44;;;;;;;2.67;2.47;;;;;;;19.05;53.23;98841.48;1832074;77;21018;-65
2022/04/25 09:27:18;;;;;;;3.17;2.87;;;;;;;19.07;53.22;98861.42;1830855;78;20997;-65
2022/04/25 09:29:48;;;;;;;;;;;;;;;19.08;53.26;98857.66;1834599;77;21576;-65
2022/04/25 09:32:18;;;;;;;3.00;2.72;;;;;;;19.10;53.29;98862.80;1832115;78;20995;-66
2022/04/25 09:35:02;;;;;;;3.10;2.80;;;;;;;19.10;53.34;98864.95;1832032;77;21438;-65
2022/04/25 09:37:46;;;;;;;2.80;2.60;;;;;;;19.10;53.34;98861.45;1832172;77;21079;-66
2022/04/25 09:40:19;;;;;;;2.95;2.75;;;;;;;19.12;53.32;98864.17;1831949;77;21076;-64
2022/04/25 09:42:47;;;;;;;3.00;2.55;;;;;;;19.14;53.34;98862.59;1832135;78;20981;-65
2022/04/25 09:45:19;;;;;;;2.80;2.60;;;;;;;19.15;53.33;98879.05;1830845;77;21802;-65
2022/04/25 09:47:45;;;;;;;2.70;2.50;;;;;;;19.15;53.35;98866.93;1831674;77;21025;-65
2022/04/25 09:50:14;;;;;;;2.45;2.30;;;;;;;19.16;53.31;98871.23;1831989;78;21576;-65
2022/04/25 09:52:53;;;;;;;2.77;2.58;;;;;;;19.17;53.30;98876.92;1831865;78;21056;-66
2022/04/25 09:55:21;;;;;;;3.25;2.90;;;;;;;19.19;53.28;98876.14;1831988;78;20986;-65
2022/04/25 09:57:49;;;;;;;2.80;2.60;;;;;;;19.19;53.25;98872.10;1831977;78;21131;-66
2022/04/25 10:00:38;;;;;;;2.77;2.58;;;;;;;19.19;53.27;98865.37;1831911;77;21076;-65
2022/04/25 10:03:06;;;;;;;2.60;2.40;;;;;;;19.20;53.26;98853.53;1830677;77;21056;-64
2022/04/25 10:05:41;;;;;;;2.80;2.60;;;;;;;19.21;53.22;98869.98;1831918;78;20997;-66
2022/04/25 10:08:11;;;;;;;3.08;2.87;;;;;;;19.21;53.19;98873.48;1831785;77;21509;-66
2022/04/25 10:10:49;;;;;;;2.60;2.40;;;;;;;19.22;53.19;98872.97;1828662;77;21984;-65
2022/04/25 10:13:17;;;;;;;2.67;2.47;;;;;;;19.22;53.19;98867.59;1813975;79;20998;-65
2022/04/25 10:15:45;;;;;;;3.20;2.83;;;;;;;19.23;53.16;98862.47;1814107;79;21024;-66
2022/04/25 10:18:13;;;;;;;2.52;2.33;;;;;;;19.23;53.12;98868.66;1811219;78;21018;-65
2022/04/25 10:20:44;;;;;;;2.95;2.67;;;;;;;19.24;53.12;98868.16;1793551;80;21533;-66
2022/04/25 10:23:11;;;;;;;2.87;2.60;;;;;;;19.25;53.09;98864.39;1793714;80;21770;-65
2022/04/25 10:25:40;;;;;;;2.72;2.52;;;;;;;19.25;53.09;98877.31;1793238;80;21037;-64
2022/04/25 10:28:14;;;;;;;3.02;2.72;;;;;;;19.28;53.10;98869.80;1793443;80;21013;-65
2022/04/25 10:30:45;;;;;;;3.95;2.67;;;;;;;19.29;53.10;98860.67;1791924;79;21498;-65
2022/04/25 10:33:19;;;;;;;2.60;2.40;;;;;;;19.30;53.09;98873.90;1793573;80;21005;-65
2022/04/25 10:35:49;;;;;;;3.10;2.80;;;;;;;19.31;53.08;98866.09;1794418;78;21283;-65
2022/04/25 10:38:51;;;;;;;3.10;2.80;;;;;;;19.34;53.09;98872.34;1792650;79;20997;-66
2022/04/25 10:44:24;;;;;;;2.90;2.60;;;;;;;19.39;53.18;98863.00;1793439;80;21023;-65
2022/04/25 10:47:17;;;;;;;2.85;2.65;;;;;;;19.43;53.18;98871.38;1793300;79;21033;-64
2022/04/25 10:49:50;;;;;;;2.55;2.35;;;;;;;19.47;53.17;98871.19;1793283;80;21141;-65
2022/04/25 10:55:14;;;;;;;2.67;2.47;;;;;;;19.54;53.18;98869.66;1793337;80;20981;-65
2022/04/25 10:58:07;;;;;;;2.95;2.75;;;;;;;19.56;53.20;98864.29;1793685;79;21058;-65
2022/04/25 11:00:45;;;;;;;2.67;2.47;;;;;;;19.59;53.23;98879.97;1793561;80;21548;-66
2022/04/25 11:03:20;;;;;;;2.40;2.17;;;;;;;19.62;53.14;98866.02;1793297;79;20977;-65
2022/04/25 11:06:00;;;;;;;2.87;2.67;;;;;;;19.65;53.12;98865.50;1793996;78;21021;-65
2022/04/25 11:08:36;;;;;;;2.52;2.33;;;;;;;19.68;53.13;98858.79;1825903;78;20994;-65
2022/04/25 11:11:17;;;;;;;4.22;3.25;;;;;;;19.72;53.13;98867.22;1824739;78;21128;-66
2022/04/25 11:13:56;;;;;;;3.12;2.83;;;;;;;19.74;53.13;98866.44;1825782;78;21059;-65
2022/04/25 11:16:26;;;;;;;2.87;2.67;;;;;;;19.75;53.11;98858.66;1825868;78;21243;-65
2022/04/25 11:19:10;;;;;;;2.70;2.50;;;;;;;19.76;53.11;98857.06;1825873;78;21006;-64
2022/04/25 11:21:45;;;;;;;3.00;2.80;;;;;;;19.78;53.10;98861.67;1825982;78;21088;-65
2022/04/25 11:24:35;;;;;;;2.60;2.40;;;;;;;19.78;53.04;98861.67;1825824;78;21029;-66
2022/04/25 11:27:05;;;;;;;2.75;2.55;;;;;;;19.77;53.05;98868.11;1824553;78;21584;-66
2022/04/25 11:29:32;;;;;;;2.62;2.40;;;;;;;19.76;53.05;98870.54;1825812;78;21204;-65
2022/04/25 11:32:36;;;;;;;2.72;2.50;;;;;;;19.78;53.06;98870.27;1825667;78;21076;-65
2022/04/25 11:35:04;;;;;;;2.33;2.12;;;;;;;19.78;53.08;98874.31;1825803;78;21276;-65
2022/04/25 11:37:33;;;;;;;2.65;2.45;;;;;;;19.77;53.04;98876.20;1825817;78;21009;-65
2022/04/25 11:40:05;;;;;;;3.42;2.87;;;;;;;19.77;53.05;98880.23;1825732;78;20978;-65
2022/04/25 11:42:37;;;;;;;2.80;2.60;;;;;;;19.78;53.06;98880.53;1825778;78;21045;-66
2022/04/25 11:45:06;;;;;;;2.92;2.72;;;;;;;19.78;53.06;98876.49;1824538;78;21560;-65
2022/04/25 11:47:32;;;;;;;2.70;2.50;;;;;;;19.79;53.05;98884.03;1825720;78;21078;-65
2022/04/25 11:50:07;;;;;;;2.75;2.55;;;;;;;19.80;53.04;98882.45;1825982;78;21064;-65
2022/04/25 11:52:52;;;;;;;2.62;2.42;;;;;;;19.81;53.04;98883.25;1825823;78;21006;-66
2022/04/25 11:55:31;;;;;;;2.70;2.50;;;;;;;19.82;53.05;98876.81;1808264;78;21137;-65
2022/04/25 11:57:57;;;;;;;2.70;2.50;;;;;;;19.81;53.00;98873.28;1807203;78;21474;-65
2022/04/25 12:00:25;;;;;;;3.40;2.47;;;;;;;19.82;53.00;98868.73;1824519;78;21009;-66
2022/04/25 12:02:53;;;;;;;2.50;2.30;;;;;;;19.83;53.00;98865.76;1825586;78;21045;-65
2022/04/25 12:05:29;;;;;;;3.02;2.83;;;;;;;19.83;52.96;98863.06;1825737;78;21518;-65
2022/04/25 12:16:14;;;;;;;2.60;2.40;;;;;;;19.86;52.85;98861.77;1825861;78;21025;-64
2022/04/25 12:18:49;;;;;;;2.70;2.50;;;;;;;19.88;52.76;98857.48;1824669;78;20974;-66
2022/04/25 12:21:17;;;;;;;2.62;2.42;;;;;;;19.90;52.77;98856.70;1825508;78;21101;-66
2022/04/25 12:23:51;;;;;;;3.10;2.90;;;;;;;19.91;52.88;98858.31;1825658;78;21506;-65
2022/04/25 12:26:30;;;;;;;2.70;2.50;;;;;;;19.91;52.92;98859.66;1826145;78;21030;-65